Terminal Aerodrome Forecast
Issued by NWS Springfield, MO

Home | Current Version | Previous Version | Text Only | Print | Product List | Glossary On
Versions: 1 2 3 4 5 6 7 8 9 10 11 12 13 14 15 16 17 18 19 20 21
078
FTUS43 KSGF 152331
TAFSGF
TAF
KSGF 152331Z 1600/1624 13004KT P6SM BKN200
     FM160600 16005KT P6SM VCTS BKN060CB OVC130
     FM161800 20008KT P6SM BKN150=

USA.gov is the U.S. government's official web portal to all federal, state and local government web resources and services.